Wardell, MO (63879)

16:21 CDT le 02 septembre 2014 (GMT -0500)
Peach Orchard | Change Station
CLOSE
Current Station
Stations météorologiques personnelles
Location: Gideon, MO
Altitude: 263 ft
Stations météo à proximité

Alt. 263 ft 36.37 °N, 89.94 °W | Updated 6 minutes ago

Ciel dégagé
Ciel dégagé
80.7 ° F
Paraît 85 ° F
N
0.0
Vent Variable Vent de NNO
Gusts 0.0 mph

Aujourd'hui
Haut(e) -- | Bas -- ° F
--% Risque de précip.
Hier
Haut(e) -- | Bas -- ° F
Precip. -- pouce
6:31 AM 7:25 PM
Premier quartier, 55% visible
Pression 29.91 pouce
Visibilité 10.0 Miles terrestres
Nuages Ciel dégagé
indice de chaleur 85 ° F
Point de rosée 71 ° F
Humidité 73%
Précipitations 0.00 pouce
Profondeur de la couche neigeuse Non disponible.
UV 5 sur 12
Pollen 8.70 sur 12
Qualité de l'air Non disponible.
Flu Activity Non disponible.
METAR KHKA 022053Z AUTO 29005KT 10SM CLR 29/24 A2992 RMK AO2 LTG DSNT E SLP128 T02940239 58019

More Conditions Fewer Conditions

Pression 29.91 pouce
Visibilité 10.0 Miles terrestres
Nuages Ciel dégagé
indice de chaleur 85 ° F
Point de rosée 71 ° F
Humidité 73%
Précipitations 0.00 pouce
Profondeur de la couche neigeuse Non disponible.
UV 5 sur 12
Pollen 8.70 sur 12
Qualité de l'air Non disponible.
Flu Activity Non disponible.
METAR KHKA 022053Z AUTO 29005KT 10SM CLR 29/24 A2992 RMK AO2 LTG DSNT E SLP128 T02940239 58019

More Conditions Fewer Conditions

10-Day Weather Forecast

Almanac

Astronomie

Sep. 02, 2014 Lever Coucher
Temps réel 06:31 CDT 19:25 CDT
Crépuscule civil 06:05 CDT 19:51 CDT
Crépuscule nautique 05:34 CDT 20:22 CDT
Crépuscule astronomique 05:01 CDT 20:55 CDT
Lune 14:03 CDT Pas de coucher de lune
Durée de lumière visible 13h 46m
Longueur du jour
12h 54m
Tomorrow will be 2m 13s shorter.
Premier quartier, 55% of the Moon is Illuminated
Aujourd'hui
Premier quartier
Sep 8
Pleine lune
Sep 15
Dernier quartier
Sep 24
Nouveau
Oct 1
Premier quartier

Extrêmes aujourd'hui

State Highs State Lows

Community

WunderPhotos

Upload Photos

1,749,769 Photos téléchargées !

Nearby

Épaisseur de neige

Station Depth Altitude
Pas de nouvelles chutes de neige

Activité sismique

Ville Distance Mag. Time & Date
Tiptonville, Tennessee 16 Miles terrestres 2.9 23:19 CDT
2014-08-31
Minimum magnitude displayed is 2.5.

Températures des eaux côtières

Lieu Température
Aucun rapport de station

Stations météo à proximité